createdAt,value
2019-04-10T00:24:03.927Z,99716.08
2019-04-10T00:26:37.502Z,99726.53
2019-04-10T00:29:12.005Z,99728.67
2019-04-10T00:31:46.598Z,99724.86
2019-04-10T00:34:21.129Z,99722.09
2019-04-10T00:36:54.522Z,99728.05
2019-04-10T00:39:28.709Z,99727.58
2019-04-10T00:42:03.024Z,99730.99
2019-04-10T00:44:37.518Z,99731.86
2019-04-10T00:47:11.640Z,99733.93
2019-04-10T00:49:46.125Z,99730.77
2019-04-10T00:52:20.025Z,99733.20
2019-04-10T00:54:53.012Z,99728.55
2019-04-10T00:57:27.456Z,99735.70
2019-04-10T01:00:00.949Z,99732.39
2019-04-10T01:02:34.530Z,99733.95
2019-04-10T01:05:07.618Z,99733.58
2019-04-10T01:07:43.177Z,99730.02
2019-04-10T01:10:15.165Z,99726.85
2019-04-10T01:12:48.211Z,99728.30
2019-04-10T01:15:22.530Z,99723.61
2019-04-10T01:17:56.963Z,99728.92
2019-04-10T01:20:29.932Z,99723.55
2019-04-10T01:23:03.581Z,99722.67
2019-04-10T01:25:36.771Z,99723.79
2019-04-10T01:28:10.529Z,99726.87
2019-04-10T01:30:43.533Z,99729.08
2019-04-10T01:33:16.874Z,99733.48
2019-04-10T01:35:50.847Z,99731.45
2019-04-10T01:38:25.113Z,99730.17
2019-04-10T01:40:59.440Z,99731.35
2019-04-10T01:43:32.971Z,99728.52
2019-04-10T01:46:06.285Z,99729.70
2019-04-10T01:48:39.798Z,99731.04
2019-04-10T01:51:12.758Z,99722.89
2019-04-10T01:53:46.168Z,99727.55
2019-04-10T01:56:25.910Z,99725.26
2019-04-10T01:58:54.077Z,99725.19
2019-04-10T02:01:34.847Z,99724.23
2019-04-10T02:04:08.800Z,99726.98
2019-04-10T02:06:43.194Z,99721.61
2019-04-10T02:09:16.652Z,99730.45
2019-04-10T02:11:50.256Z,99727.84
2019-04-10T02:14:24.511Z,99726.17
2019-04-10T02:16:57.495Z,99728.69
2019-04-10T02:19:32.100Z,99733.31
2019-04-10T02:22:04.961Z,99733.70
2019-04-10T02:24:38.928Z,99737.07
2019-04-10T02:27:12.398Z,99730.66
2019-04-10T02:29:46.048Z,99731.67
2019-04-10T02:32:21.087Z,99729.16
2019-04-10T02:34:57.351Z,99727.98
2019-04-10T02:37:31.161Z,99732.23
2019-04-10T02:40:07.110Z,99734.63
2019-04-10T02:42:41.065Z,99736.49
2019-04-10T02:45:14.839Z,99737.52
2019-04-10T02:47:48.893Z,99728.45
2019-04-10T02:50:21.850Z,99739.75
2019-04-10T02:52:55.170Z,99733.33
2019-04-10T02:55:29.242Z,99738.69
2019-04-10T02:58:02.677Z,99740.17
2019-04-10T03:00:37.811Z,99741.17
2019-04-10T03:03:12.087Z,99741.23
2019-04-10T03:05:46.613Z,99738.20
2019-04-10T03:08:37.090Z,99747.46
2019-04-10T03:11:00.412Z,99742.91
2019-04-10T03:13:31.040Z,99742.30
2019-04-10T03:16:05.464Z,99746.94
2019-04-10T03:18:39.096Z,99740.08
2019-04-10T03:21:13.635Z,99740.79
2019-04-10T03:23:47.562Z,99737.08
2019-04-10T03:26:21.528Z,99739.27
2019-04-10T03:28:55.619Z,99740.39
2019-04-10T03:31:30.109Z,99732.45
2019-04-10T03:34:21.802Z,99738.56
2019-04-10T03:36:54.309Z,99735.98
2019-04-10T03:39:28.039Z,99734.77
2019-04-10T03:42:01.484Z,99735.69
2019-04-10T03:44:34.829Z,99735.02
2019-04-10T03:47:09.100Z,99734.34
2019-04-10T03:49:42.272Z,99730.79
2019-04-10T03:52:14.596Z,99740.34
2019-04-10T03:54:48.203Z,99735.64
2019-04-10T03:57:22.636Z,99737.83
2019-04-10T03:59:55.925Z,99738.71
2019-04-10T04:02:29.510Z,99741.20
2019-04-10T04:05:02.867Z,99742.19
2019-04-10T04:07:36.751Z,99743.42
2019-04-10T04:10:12.819Z,99744.11
2019-04-10T04:12:46.756Z,99745.52
2019-04-10T04:15:20.220Z,99753.84
2019-04-10T04:17:54.779Z,99749.77
2019-04-10T04:20:28.661Z,99751.44
2019-04-10T04:23:02.044Z,99748.42
2019-04-10T04:25:35.054Z,99746.66
2019-04-10T04:28:08.890Z,99755.38
2019-04-10T04:30:42.567Z,99754.34
2019-04-10T04:33:16.172Z,99755.80
2019-04-10T04:35:49.531Z,99748.69
2019-04-10T04:38:23.628Z,99745.94
2019-04-10T04:40:56.965Z,99762.25
2019-04-10T04:43:30.592Z,99750.56
2019-04-10T04:46:03.646Z,99754.00
2019-04-10T04:48:36.969Z,99761.19
2019-04-10T04:51:09.844Z,99763.67
2019-04-10T04:53:44.119Z,99774.13
2019-04-10T04:56:17.938Z,99761.29
2019-04-10T04:58:51.707Z,99766.75
2019-04-10T05:01:24.448Z,99777.80
2019-04-10T05:03:58.232Z,99775.92
2019-04-10T05:06:32.968Z,99781.35
2019-04-10T05:09:06.962Z,99788.09
2019-04-10T05:11:39.921Z,99787.73
2019-04-10T05:14:13.281Z,99790.47
2019-04-10T05:16:47.589Z,99795.27
2019-04-10T05:19:21.702Z,99794.39
2019-04-10T05:21:55.143Z,99798.43
2019-04-10T05:24:28.514Z,99799.26
2019-04-10T05:27:02.347Z,99810.33
2019-04-10T05:29:34.917Z,99807.12
2019-04-10T05:32:07.782Z,99811.57
2019-04-10T05:34:41.163Z,99809.92
2019-04-10T05:37:15.628Z,99814.92
2019-04-10T05:39:50.829Z,99815.98
2019-04-10T05:42:24.777Z,99821.53
2019-04-10T05:44:58.882Z,99819.77
2019-04-10T05:47:32.380Z,99824.61
2019-04-10T05:50:06.141Z,99833.89
2019-04-10T05:52:40.209Z,99832.14
2019-04-10T05:55:13.955Z,99833.25
2019-04-10T05:57:47.000Z,99841.09
2019-04-10T06:00:21.358Z,99836.93
2019-04-10T06:02:56.371Z,99835.08
2019-04-10T06:05:29.930Z,99837.28
2019-04-10T06:08:03.314Z,99829.12
2019-04-10T06:10:36.593Z,99837.81
2019-04-10T06:13:10.947Z,99842.48
2019-04-10T06:15:43.812Z,99841.96
2019-04-10T06:18:16.716Z,99835.91
2019-04-10T06:20:50.445Z,99847.27
2019-04-10T06:23:23.705Z,99838.80
2019-04-10T06:25:56.776Z,99838.88
2019-04-10T06:28:30.998Z,99839.33
2019-04-10T06:31:04.233Z,99839.05
2019-04-10T06:33:36.804Z,99836.28
2019-04-10T06:36:11.239Z,99831.80
2019-04-10T06:38:45.400Z,99838.36
2019-04-10T06:41:19.114Z,99844.81
2019-04-10T06:43:53.123Z,99850.38
2019-04-10T06:46:26.133Z,99852.67
2019-04-10T06:48:58.677Z,99853.88
2019-04-10T06:51:31.591Z,99860.08
2019-04-10T06:54:09.551Z,99852.17
2019-04-10T06:56:41.057Z,99855.89
2019-04-10T06:59:14.506Z,99858.26
2019-04-10T07:01:51.456Z,99862.23
2019-04-10T07:04:25.137Z,99859.08
2019-04-10T07:07:04.486Z,99858.07
2019-04-10T07:09:32.455Z,99863.75
2019-04-10T07:12:06.751Z,99863.97
2019-04-10T07:14:44.011Z,99862.73
2019-04-10T07:17:16.008Z,99851.17
2019-04-10T07:19:49.584Z,99852.98
2019-04-10T07:22:23.183Z,99864.75
2019-04-10T07:24:56.603Z,99863.15
2019-04-10T07:27:33.556Z,99868.47
2019-04-10T07:30:06.028Z,99864.37
2019-04-10T07:32:43.312Z,99865.70
2019-04-10T07:35:18.299Z,99868.86
2019-04-10T07:37:54.276Z,99869.56
2019-04-10T07:40:25.598Z,99867.38
2019-04-10T07:42:59.393Z,99875.89
2019-04-10T07:45:32.004Z,99880.36
2019-04-10T07:48:06.656Z,99879.42
2019-04-10T07:50:42.037Z,99878.63
2019-04-10T07:53:14.921Z,99888.48
2019-04-10T07:56:00.438Z,99881.05
2019-04-10T07:58:23.585Z,99885.56
2019-04-10T08:00:56.847Z,99884.75
2019-04-10T08:03:29.558Z,99884.29
2019-04-10T08:06:02.421Z,99882.48
2019-04-10T08:08:36.253Z,99889.83
2019-04-10T08:11:09.613Z,99880.23
2019-04-10T08:13:44.879Z,99890.41
2019-04-10T08:16:19.207Z,99895.20
2019-04-10T08:18:52.235Z,99895.76
2019-04-10T08:21:27.376Z,99889.10
2019-04-10T08:24:03.767Z,99892.30
2019-04-10T08:26:37.169Z,99896.31
2019-04-10T08:29:11.980Z,99904.20
2019-04-10T08:31:48.407Z,99891.87
2019-04-10T08:34:26.159Z,99889.16
2019-04-10T08:37:02.081Z,99899.16
2019-04-10T08:39:41.200Z,99889.10
2019-04-10T08:42:10.679Z,99884.87
2019-04-10T08:44:44.554Z,99896.62
2019-04-10T08:47:17.574Z,99900.47
2019-04-10T08:49:50.698Z,99898.45
2019-04-10T08:52:24.485Z,99906.26
2019-04-10T08:54:59.614Z,99900.11
2019-04-10T08:57:34.176Z,99903.08
2019-04-10T09:00:08.344Z,99901.01
2019-04-10T09:02:42.356Z,99899.73
2019-04-10T09:05:17.613Z,99899.84
2019-04-10T09:07:50.741Z,99898.97
2019-04-10T09:10:23.536Z,99895.01
2019-04-10T09:12:56.539Z,99896.45
2019-04-10T09:15:32.029Z,99898.41
2019-04-10T09:18:08.270Z,99895.09
2019-04-10T09:20:42.896Z,99903.97
2019-04-10T09:23:39.802Z,99896.48
2019-04-10T09:25:55.401Z,99887.86
2019-04-10T09:28:32.685Z,99891.86
2019-04-10T09:31:07.369Z,99889.77
2019-04-10T09:33:40.464Z,99895.47
2019-04-10T09:36:15.786Z,99889.40
2019-04-10T09:38:48.674Z,99899.25
2019-04-10T09:41:21.628Z,99890.18
2019-04-10T09:43:56.163Z,99895.43
2019-04-10T09:46:31.098Z,99892.27
2019-04-10T09:49:05.404Z,99884.67
2019-04-10T09:51:40.303Z,99898.09
2019-04-10T09:54:13.420Z,99892.52
2019-04-10T09:56:46.610Z,99893.24
2019-04-10T09:59:31.310Z,99901.56
2019-04-10T10:01:58.311Z,99890.74
2019-04-10T10:04:31.850Z,99889.69
2019-04-10T10:07:08.304Z,99882.35
2019-04-10T10:09:43.157Z,99884.80
2019-04-10T10:12:18.058Z,99882.38
2019-04-10T10:14:51.894Z,99886.50
2019-04-10T10:17:28.572Z,99874.94
2019-04-10T10:20:01.874Z,99881.44
2019-04-10T10:22:37.390Z,99895.84
2019-04-10T10:25:11.146Z,99869.08
2019-04-10T10:27:44.773Z,99875.78
2019-04-10T10:30:19.639Z,99880.02
2019-04-10T10:32:53.187Z,99881.66
2019-04-10T10:35:27.275Z,99877.08
2019-04-10T10:38:01.086Z,99872.65
2019-04-10T10:40:36.604Z,99895.20
2019-04-10T10:43:10.007Z,99893.17
2019-04-10T10:45:45.420Z,99887.42
2019-04-10T10:48:18.393Z,99881.31
2019-04-10T10:50:51.734Z,99890.04
2019-04-10T10:53:26.213Z,99889.47
2019-04-10T10:55:58.718Z,99886.10
2019-04-10T10:58:32.181Z,99887.37
2019-04-10T11:01:05.412Z,99889.68
2019-04-10T11:03:38.799Z,99895.95
2019-04-10T11:06:11.461Z,99887.84
2019-04-10T11:08:44.046Z,99889.59
2019-04-10T11:11:17.421Z,99882.86
2019-04-10T11:13:50.771Z,99891.00
2019-04-10T11:16:24.766Z,99878.28
2019-04-10T11:18:58.937Z,99889.63
2019-04-10T11:21:32.482Z,99892.52
2019-04-10T11:24:06.981Z,99888.31
2019-04-10T11:26:40.031Z,99882.37
2019-04-10T11:29:14.369Z,99898.12
2019-04-10T11:31:47.566Z,99893.80
2019-04-10T11:34:22.629Z,99886.56
2019-04-10T11:37:18.163Z,99896.09
2019-04-10T11:39:35.861Z,99889.15
2019-04-10T11:42:10.069Z,99896.64
2019-04-10T11:44:45.647Z,99891.53
2019-04-10T11:47:19.910Z,99891.53
2019-04-10T11:49:57.318Z,99888.50
2019-04-10T11:52:36.347Z,99891.04
2019-04-10T11:57:41.954Z,99901.81
2019-04-10T12:00:20.367Z,99887.56
2019-04-10T12:02:58.219Z,99899.08
2019-04-10T12:05:31.703Z,99895.14
2019-04-10T12:08:32.256Z,99897.97
2019-04-10T12:13:17.987Z,99895.02
2019-04-10T12:15:52.609Z,99896.19
2019-04-10T12:18:26.648Z,99893.14
2019-04-10T12:21:00.050Z,99887.53
2019-04-10T12:23:33.033Z,99886.00
2019-04-10T12:26:07.437Z,99889.45
2019-04-10T12:28:40.706Z,99880.47
2019-04-10T12:31:13.640Z,99876.73
2019-04-10T12:33:46.657Z,99887.31
2019-04-10T12:36:20.555Z,99892.11
2019-04-10T12:38:54.088Z,99894.17
2019-04-10T12:41:27.687Z,99896.43
2019-04-10T12:44:01.050Z,99894.16
2019-04-10T12:46:35.161Z,99897.23
2019-04-10T12:49:07.839Z,99901.67
2019-04-10T12:51:41.699Z,99902.25
2019-04-10T12:54:15.042Z,99888.08
2019-04-10T12:56:48.535Z,99901.33
2019-04-10T12:59:21.890Z,99909.39
2019-04-10T13:01:55.496Z,99899.55
2019-04-10T13:04:30.276Z,99904.14
2019-04-10T13:07:05.397Z,99895.36
2019-04-10T13:09:38.610Z,99898.12
2019-04-10T13:12:11.903Z,99909.34
2019-04-10T13:14:44.983Z,99901.67
2019-04-10T13:17:20.265Z,99897.20
2019-04-10T13:19:53.595Z,99881.86
2019-04-10T13:22:28.417Z,99901.23
2019-04-10T13:25:01.870Z,99909.45
2019-04-10T13:27:35.389Z,99904.39
2019-04-10T13:30:12.873Z,99891.50
2019-04-10T13:32:45.651Z,99900.23
2019-04-10T13:35:18.818Z,99901.68
2019-04-10T13:37:52.844Z,99889.20
2019-04-10T13:40:26.353Z,99892.72
2019-04-10T13:42:59.728Z,99900.27
2019-04-10T13:45:32.884Z,99906.15
2019-04-10T13:48:06.170Z,99887.13
2019-04-10T13:50:39.158Z,99891.97
2019-04-10T13:53:13.427Z,99887.72
2019-04-10T13:55:46.532Z,99894.30
2019-04-10T13:58:19.990Z,99903.23
2019-04-10T14:00:53.634Z,99891.79
2019-04-10T14:03:26.755Z,99891.73
2019-04-10T14:06:01.138Z,99893.87
2019-04-10T14:08:54.729Z,99890.88
2019-04-10T14:11:07.506Z,99894.36
2019-04-10T14:13:40.670Z,99895.68
2019-04-10T14:16:14.807Z,99895.14
2019-04-10T14:18:47.175Z,99895.95
2019-04-10T14:21:20.748Z,99896.22
2019-04-10T14:23:55.590Z,99896.46
2019-04-10T14:26:46.758Z,99914.09
2019-04-10T14:29:16.926Z,99903.41
2019-04-10T14:32:01.749Z,99903.76
2019-04-10T14:34:34.888Z,99904.22
2019-04-10T14:37:11.492Z,99902.74
2019-04-10T14:42:18.267Z,99898.75
2019-04-10T14:44:51.306Z,99901.94
2019-04-10T14:47:25.488Z,99902.37
2019-04-10T14:49:59.625Z,99895.23
2019-04-10T14:52:33.142Z,99895.72
2019-04-10T14:55:06.200Z,99892.91
2019-04-10T14:57:39.179Z,99906.44
2019-04-10T15:00:18.806Z,99904.98
2019-04-10T15:02:51.941Z,99909.33
2019-04-10T15:05:25.843Z,99910.52
2019-04-10T15:07:59.498Z,99909.25
2019-04-10T15:10:32.576Z,99913.58
2019-04-10T15:13:10.169Z,99909.89
2019-04-10T15:15:42.804Z,99914.71
2019-04-10T15:18:15.987Z,99915.77
2019-04-10T15:20:49.367Z,99914.40
2019-04-10T15:23:23.243Z,99918.93
2019-04-10T15:25:57.534Z,99924.95
2019-04-10T15:28:30.472Z,99925.87
2019-04-10T15:31:04.349Z,99924.81
2019-04-10T15:33:37.757Z,99921.12
2019-04-10T15:36:11.505Z,99919.27
2019-04-10T15:38:46.318Z,99937.11
2019-04-10T15:41:21.006Z,99930.73
2019-04-10T15:43:54.133Z,99929.27
2019-04-10T15:46:26.924Z,99930.58
2019-04-10T15:49:00.557Z,99929.92
2019-04-10T15:51:34.252Z,99930.95
2019-04-10T15:54:08.123Z,99924.31
2019-04-10T15:56:42.338Z,99930.61
2019-04-10T15:59:16.402Z,99930.19
2019-04-10T16:01:50.980Z,99935.83
2019-04-10T16:04:25.426Z,99929.95
2019-04-10T16:07:00.041Z,99930.33
2019-04-10T16:09:44.877Z,99933.37
2019-04-10T16:12:14.395Z,99938.38
2019-04-10T16:14:48.665Z,99936.42
2019-04-10T16:17:33.353Z,99938.47
2019-04-10T16:20:23.780Z,99939.36
2019-04-10T16:23:15.002Z,99943.84
2019-04-10T16:25:52.599Z,99938.17
2019-04-10T16:28:25.489Z,99935.51
2019-04-10T16:30:59.419Z,99933.44
2019-04-10T16:33:33.487Z,99932.06
2019-04-10T16:36:06.992Z,99936.56
2019-04-10T16:38:40.670Z,99948.20
2019-04-10T16:41:15.300Z,99937.55
2019-04-10T16:43:48.723Z,99946.98
2019-04-10T16:46:22.021Z,99943.77
2019-04-10T16:48:56.182Z,99945.43
2019-04-10T16:51:29.147Z,99943.45
2019-04-10T16:54:02.451Z,99954.31
2019-04-10T16:56:36.370Z,99953.25
2019-04-10T16:59:09.958Z,99950.80
2019-04-10T17:01:43.344Z,99950.31
2019-04-10T17:04:16.841Z,99954.64
2019-04-10T17:06:50.527Z,99957.95
2019-04-10T17:09:25.099Z,99959.00
2019-04-10T17:11:58.964Z,99953.00
2019-04-10T17:14:32.691Z,99952.92
2019-04-10T17:17:06.483Z,99965.03
2019-04-10T17:19:49.386Z,99966.23
2019-04-10T17:22:17.608Z,99966.28
2019-04-10T17:24:50.745Z,99962.93
2019-04-10T17:27:25.615Z,99967.25
2019-04-10T17:29:58.793Z,99977.58
2019-04-10T17:32:32.630Z,99969.99
2019-04-10T17:35:09.518Z,99970.00
2019-04-10T17:37:43.075Z,99976.46
2019-04-10T17:40:28.533Z,99978.47
2019-04-10T17:42:50.921Z,99983.81
2019-04-10T17:45:25.832Z,99987.14
2019-04-10T17:48:01.059Z,99989.70
2019-04-10T17:50:33.919Z,99995.42
2019-04-10T17:53:07.467Z,99990.29
2019-04-10T17:55:41.989Z,99994.37
2019-04-10T17:58:15.157Z,99998.77
2019-04-10T18:00:51.851Z,99998.44
2019-04-10T18:03:29.464Z,100003.66
2019-04-10T18:06:01.368Z,100005.83
2019-04-10T18:08:36.751Z,100010.95
2019-04-10T18:11:10.473Z,100013.02
2019-04-10T18:13:44.842Z,100026.80
2019-04-10T18:16:18.153Z,100026.83
2019-04-10T18:18:51.757Z,100023.77
2019-04-10T18:21:25.580Z,100030.32
2019-04-10T18:23:59.998Z,100034.48
2019-04-10T18:26:34.010Z,100039.53
2019-04-10T18:29:07.878Z,100041.21
2019-04-10T18:31:41.462Z,100048.85
2019-04-10T18:34:15.424Z,100046.67
2019-04-10T18:36:50.993Z,100050.95
2019-04-10T18:39:24.463Z,100059.77
2019-04-10T18:41:59.758Z,100064.09
2019-04-10T18:44:35.206Z,100064.89
2019-04-10T18:47:08.990Z,100070.22
2019-04-10T18:49:43.321Z,100071.06
2019-04-10T18:52:16.612Z,100078.31
2019-04-10T18:54:50.141Z,100074.09
2019-04-10T18:57:24.052Z,100079.19
2019-04-10T19:00:24.043Z,100078.61
2019-04-10T19:03:15.097Z,100083.61
2019-04-10T19:05:52.042Z,100074.23
2019-04-10T19:08:26.086Z,100092.68
2019-04-10T19:11:10.587Z,100090.78
2019-04-10T19:13:35.660Z,100096.73
2019-04-10T19:16:08.975Z,100101.23
2019-04-10T19:18:42.375Z,100097.39
2019-04-10T19:21:15.641Z,100099.96
2019-04-10T19:23:49.622Z,100102.98
2019-04-10T19:26:23.251Z,100104.66
2019-04-10T19:28:57.148Z,100109.12
2019-04-10T19:31:33.350Z,100109.96
2019-04-10T19:34:07.218Z,100108.70
2019-04-10T19:36:40.357Z,100112.12
2019-04-10T19:39:14.011Z,100115.03
2019-04-10T19:41:48.756Z,100120.42
2019-04-10T19:44:23.193Z,100111.93
2019-04-10T19:46:57.703Z,100110.48
2019-04-10T19:49:31.083Z,100118.78
2019-04-10T19:52:08.604Z,100117.95
2019-04-10T19:54:42.966Z,100117.09
2019-04-10T19:57:17.220Z,100117.65
2019-04-10T19:59:50.293Z,100121.79
2019-04-10T20:02:24.648Z,100124.71
2019-04-10T20:04:59.047Z,100123.91
2019-04-10T20:07:33.212Z,100125.03
2019-04-10T20:10:06.770Z,100127.98
2019-04-10T20:12:42.601Z,100130.41
2019-04-10T20:15:16.540Z,100136.30
2019-04-10T20:17:50.411Z,100133.69
2019-04-10T20:20:23.744Z,100140.73
2019-04-10T20:22:58.292Z,100141.13
2019-04-10T20:25:32.405Z,100142.39
2019-04-10T20:28:06.836Z,100144.38
2019-04-10T20:30:40.457Z,100148.03
2019-04-10T20:33:14.617Z,100149.06
2019-04-10T20:35:48.816Z,100158.40
2019-04-10T20:38:23.131Z,100152.21
2019-04-10T20:40:58.601Z,100157.89
2019-04-10T20:43:33.457Z,100162.80
2019-04-10T20:46:07.250Z,100163.53
2019-04-10T20:48:40.905Z,100158.53
2019-04-10T20:51:16.565Z,100161.25
2019-04-10T20:53:50.614Z,100165.04
2019-04-10T20:56:24.268Z,100165.20
2019-04-10T20:58:57.174Z,100165.84
2019-04-10T21:01:31.011Z,100165.91
2019-04-10T21:04:05.293Z,100169.14
2019-04-10T21:06:40.881Z,100171.55
2019-04-10T21:09:13.406Z,100173.91
2019-04-10T21:11:57.989Z,100180.23
2019-04-10T21:14:21.259Z,100175.64
2019-04-10T21:16:54.769Z,100181.19
2019-04-10T21:19:29.028Z,100184.43
2019-04-10T21:22:03.698Z,100189.11
2019-04-10T21:24:37.917Z,100189.49
2019-04-10T21:27:11.315Z,100191.48
2019-04-10T21:30:03.893Z,100189.97
2019-04-10T21:32:45.412Z,100186.73
2019-04-10T21:35:22.878Z,100187.92
2019-04-10T21:37:56.915Z,100201.06
2019-04-10T21:40:30.627Z,100195.84
2019-04-10T21:43:03.858Z,100192.34
2019-04-10T21:45:37.514Z,100190.00
2019-04-10T21:48:11.204Z,100191.31
2019-04-10T21:50:44.165Z,100198.84
2019-04-10T21:53:17.158Z,100202.08
2019-04-10T21:55:51.418Z,100202.08
2019-04-10T21:58:24.607Z,100199.19
2019-04-10T22:01:05.577Z,100203.48
2019-04-10T22:03:41.389Z,100201.72
2019-04-10T22:06:33.640Z,100196.81
2019-04-10T22:09:28.504Z,100208.98
2019-04-10T22:12:21.554Z,100203.76
2019-04-10T22:14:43.870Z,100208.12
2019-04-10T22:17:17.347Z,100205.21
2019-04-10T22:19:50.758Z,100210.31
2019-04-10T22:22:24.527Z,100210.00
2019-04-10T22:24:57.514Z,100212.85
2019-04-10T22:27:30.293Z,100217.59
2019-04-10T22:30:04.899Z,100220.44
2019-04-10T22:32:39.040Z,100221.84
2019-04-10T22:35:12.432Z,100224.53
2019-04-10T22:37:46.324Z,100227.93
2019-04-10T22:40:19.391Z,100227.72
2019-04-10T22:42:53.246Z,100233.96
2019-04-10T22:45:29.251Z,100232.94
2019-04-10T22:48:04.198Z,100233.46
2019-04-10T22:50:38.428Z,100227.59
2019-04-10T22:53:11.339Z,100240.03
2019-04-10T22:55:44.444Z,100233.45
2019-04-10T22:58:17.370Z,100237.00
2019-04-10T23:00:50.978Z,100239.75
2019-04-10T23:03:24.472Z,100246.67
2019-04-10T23:09:14.573Z,100246.08
2019-04-10T23:11:48.526Z,100242.93
2019-04-10T23:14:22.746Z,100248.94
2019-04-10T23:16:56.712Z,100244.36
2019-04-10T23:19:30.059Z,100248.13
2019-04-10T23:22:07.159Z,100248.23
2019-04-10T23:24:40.534Z,100248.55
2019-04-10T23:27:14.959Z,100249.02
2019-04-10T23:29:48.659Z,100255.88
2019-04-10T23:32:21.643Z,100249.03
2019-04-10T23:34:54.891Z,100252.48
2019-04-10T23:37:28.913Z,100256.20
2019-04-10T23:40:04.954Z,100260.63
2019-04-10T23:42:38.111Z,100264.20
2019-04-10T23:45:13.509Z,100262.14
2019-04-10T23:47:48.684Z,100255.86
2019-04-10T23:50:23.969Z,100259.84
2019-04-10T23:52:58.337Z,100261.44
2019-04-10T23:55:32.292Z,100270.39
2019-04-10T23:58:05.851Z,100271.83
